sensor_id;sensor_type;location;lat;lon;timestamp;pressure;altitude;pressure_sealevel;temperature;humidity
31403;BME280;18039;52.188;21.024;2022-11-02T00:03:57;76694.25;;;-141.45;100.00
31403;BME280;18039;52.188;21.024;2022-11-02T00:06:24;76702.34;;;-141.45;100.00
31403;BME280;18039;52.188;21.024;2022-11-02T00:08:51;76702.34;;;-141.45;100.00
31403;BME280;18039;52.188;21.024;2022-11-02T00:11:19;76694.25;;;-141.45;100.00
31403;BME280;18039;52.188;21.024;2022-11-02T00:13:46;76694.25;;;-141.45;100.00
31403;BME280;18039;52.188;21.024;2022-11-02T00:16:14;76690.19;;;-141.45;100.00
31403;BME280;18039;52.188;21.024;2022-11-02T00:18:45;76694.25;;;-141.45;100.00
31403;BME280;18039;52.188;21.024;2022-11-02T00:21:15;76690.19;;;-141.45;100.00
31403;BME280;18039;52.188;21.024;2022-11-02T00:23:43;76690.19;;;-141.45;100.00
31403;BME280;18039;52.188;21.024;2022-11-02T00:26:11;76690.19;;;-141.45;100.00
31403;BME280;18039;52.188;21.024;2022-11-02T00:28:38;76690.19;;;-141.45;100.00
31403;BME280;18039;52.188;21.024;2022-11-02T00:31:06;76688.16;;;-141.45;100.00
31403;BME280;18039;52.188;21.024;2022-11-02T00:33:33;76690.19;;;-141.45;100.00
31403;BME280;18039;52.188;21.024;2022-11-02T00:36:00;76686.13;;;-141.45;100.00
31403;BME280;18039;52.188;21.024;2022-11-02T00:38:27;76686.13;;;-141.45;100.00
31403;BME280;18039;52.188;21.024;2022-11-02T00:40:54;76682.09;;;-141.45;100.00
31403;BME280;18039;52.188;21.024;2022-11-02T00:43:21;76684.13;;;-141.45;100.00
31403;BME280;18039;52.188;21.024;2022-11-02T00:45:48;76690.19;;;-141.45;100.00
31403;BME280;18039;52.188;21.024;2022-11-02T00:48:15;76694.25;;;-141.45;100.00
31403;BME280;18039;52.188;21.024;2022-11-02T00:50:43;76682.09;;;-141.45;100.00
31403;BME280;18039;52.188;21.024;2022-11-02T00:53:11;76684.13;;;-141.45;100.00
31403;BME280;18039;52.188;21.024;2022-11-02T00:55:47;76684.13;;;-141.45;100.00
31403;BME280;18039;52.188;21.024;2022-11-02T00:58:14;76678.03;;;-141.45;100.00
31403;BME280;18039;52.188;21.024;2022-11-02T01:00:42;76673.97;;;-141.45;100.00
31403;BME280;18039;52.188;21.024;2022-11-02T01:03:09;76669.94;;;-141.45;100.00
31403;BME280;18039;52.188;21.024;2022-11-02T01:05:36;76665.88;;;-141.45;100.00
31403;BME280;18039;52.188;21.024;2022-11-02T01:08:04;76669.94;;;-141.45;100.00
31403;BME280;18039;52.188;21.024;2022-11-02T01:10:32;76667.91;;;-141.45;100.00
31403;BME280;18039;52.188;21.024;2022-11-02T01:13:00;76657.75;;;-141.45;100.00
31403;BME280;18039;52.188;21.024;2022-11-02T01:15:27;76661.81;;;-141.45;100.00
31403;BME280;18039;52.188;21.024;2022-11-02T01:17:54;76661.81;;;-141.45;100.00
31403;BME280;18039;52.188;21.024;2022-11-02T01:20:21;76661.81;;;-141.45;100.00
31403;BME280;18039;52.188;21.024;2022-11-02T01:22:49;76661.81;;;-141.45;100.00
31403;BME280;18039;52.188;21.024;2022-11-02T01:25:18;76657.75;;;-141.45;100.00
31403;BME280;18039;52.188;21.024;2022-11-02T01:27:45;76661.81;;;-141.45;100.00
31403;BME280;18039;52.188;21.024;2022-11-02T01:30:12;76661.81;;;-141.45;100.00
31403;BME280;18039;52.188;21.024;2022-11-02T01:32:41;76657.75;;;-141.45;100.00
31403;BME280;18039;52.188;21.024;2022-11-02T01:35:08;76655.72;;;-141.45;100.00
31403;BME280;18039;52.188;21.024;2022-11-02T01:37:37;76661.81;;;-141.45;100.00
31403;BME280;18039;52.188;21.024;2022-11-02T01:40:04;76651.69;;;-141.45;100.00
31403;BME280;18039;52.188;21.024;2022-11-02T01:42:31;76653.72;;;-141.45;100.00
31403;BME280;18039;52.188;21.024;2022-11-02T01:44:59;76653.72;;;-141.45;100.00
31403;BME280;18039;52.188;21.024;2022-11-02T01:47:30;76649.66;;;-141.45;100.00
31403;BME280;18039;52.188;21.024;2022-11-02T01:50:07;76649.66;;;-141.45;100.00
31403;BME280;18039;52.188;21.024;2022-11-02T01:52:37;76649.66;;;-141.45;100.00
31403;BME280;18039;52.188;21.024;2022-11-02T01:57:33;76649.66;;;-141.45;100.00
31403;BME280;18039;52.188;21.024;2022-11-02T02:00:10;76643.56;;;-141.45;100.00
31403;BME280;18039;52.188;21.024;2022-11-02T02:03:09;76641.53;;;-141.45;100.00
31403;BME280;18039;52.188;21.024;2022-11-02T02:05:40;76643.56;;;-141.45;100.00
31403;BME280;18039;52.188;21.024;2022-11-02T02:08:08;76649.66;;;-141.45;100.00
31403;BME280;18039;52.188;21.024;2022-11-02T02:10:37;76649.66;;;-141.45;100.00
31403;BME280;18039;52.188;21.024;2022-11-02T02:13:05;76649.66;;;-141.45;100.00
31403;BME280;18039;52.188;21.024;2022-11-02T02:18:32;76641.53;;;-141.45;100.00
31403;BME280;18039;52.188;21.024;2022-11-02T02:26:53;76645.59;;;-141.45;100.00
31403;BME280;18039;52.188;21.024;2022-11-02T02:32:16;76641.53;;;-141.45;100.00
31403;BME280;18039;52.188;21.024;2022-11-02T02:35:28;76633.44;;;-141.45;100.00
31403;BME280;18039;52.188;21.024;2022-11-02T02:38:01;76641.53;;;-141.45;100.00
31403;BME280;18039;52.188;21.024;2022-11-02T02:40:56;76641.53;;;-141.45;100.00
31403;BME280;18039;52.188;21.024;2022-11-02T02:46:07;76645.59;;;-141.45;100.00
31403;BME280;18039;52.188;21.024;2022-11-02T02:48:40;76641.53;;;-141.45;100.00
31403;BME280;18039;52.188;21.024;2022-11-02T02:51:15;76641.53;;;-141.45;100.00
31403;BME280;18039;52.188;21.024;2022-11-02T02:53:50;76647.63;;;-141.45;100.00
31403;BME280;18039;52.188;21.024;2022-11-02T02:56:22;76645.59;;;-141.45;100.00
31403;BME280;18039;52.188;21.024;2022-11-02T02:58:58;76649.66;;;-141.45;100.00
31403;BME280;18039;52.188;21.024;2022-11-02T03:01:27;76641.53;;;-141.45;100.00
31403;BME280;18039;52.188;21.024;2022-11-02T03:03:54;76645.59;;;-141.45;100.00
31403;BME280;18039;52.188;21.024;2022-11-02T03:06:29;76649.66;;;-141.45;100.00
31403;BME280;18039;52.188;21.024;2022-11-02T03:09:08;76645.59;;;-141.45;100.00
31403;BME280;18039;52.188;21.024;2022-11-02T03:12:00;76645.59;;;-141.45;100.00
31403;BME280;18039;52.188;21.024;2022-11-02T03:17:18;76645.59;;;-141.45;100.00
31403;BME280;18039;52.188;21.024;2022-11-02T03:19:54;76637.50;;;-141.45;100.00
31403;BME280;18039;52.188;21.024;2022-11-02T03:22:38;76637.50;;;-141.45;100.00
31403;BME280;18039;52.188;21.024;2022-11-02T03:25:23;76637.50;;;-141.45;100.00
31403;BME280;18039;52.188;21.024;2022-11-02T03:30:41;76629.38;;;-141.45;100.00
31403;BME280;18039;52.188;21.024;2022-11-02T03:33:21;76625.31;;;-141.45;100.00
31403;BME280;18039;52.188;21.024;2022-11-02T03:36:12;76617.22;;;-141.45;100.00
31403;BME280;18039;52.188;21.024;2022-11-02T03:38:57;76619.25;;;-141.45;100.00
31403;BME280;18039;52.188;21.024;2022-11-02T03:41:28;76621.28;;;-141.45;100.00
31403;BME280;18039;52.188;21.024;2022-11-02T03:44:03;76621.28;;;-141.45;100.00
31403;BME280;18039;52.188;21.024;2022-11-02T03:46:35;76625.31;;;-141.45;100.00
31403;BME280;18039;52.188;21.024;2022-11-02T03:49:06;76613.16;;;-141.45;100.00
31403;BME280;18039;52.188;21.024;2022-11-02T03:51:39;76615.19;;;-141.45;100.00
31403;BME280;18039;52.188;21.024;2022-11-02T03:54:47;76615.19;;;-141.45;100.00
31403;BME280;18039;52.188;21.024;2022-11-02T03:57:22;76609.09;;;-141.45;100.00
31403;BME280;18039;52.188;21.024;2022-11-02T03:59:51;76613.16;;;-141.45;100.00
31403;BME280;18039;52.188;21.024;2022-11-02T04:02:19;76609.09;;;-141.45;100.00
31403;BME280;18039;52.188;21.024;2022-11-02T04:04:48;76609.09;;;-141.45;100.00
31403;BME280;18039;52.188;21.024;2022-11-02T04:07:27;76605.06;;;-141.45;100.00
31403;BME280;18039;52.188;21.024;2022-11-02T04:10:24;76601.00;;;-141.45;100.00
31403;BME280;18039;52.188;21.024;2022-11-02T04:12:51;76601.00;;;-141.45;100.00
31403;BME280;18039;52.188;21.024;2022-11-02T04:15:37;76598.97;;;-141.45;100.00
31403;BME280;18039;52.188;21.024;2022-11-02T04:18:04;76613.16;;;-141.45;100.00
31403;BME280;18039;52.188;21.024;2022-11-02T04:20:50;76588.84;;;-141.45;100.00
31403;BME280;18039;52.188;21.024;2022-11-02T04:23:18;76596.94;;;-141.45;100.00
31403;BME280;18039;52.188;21.024;2022-11-02T04:26:04;76588.84;;;-141.45;100.00
31403;BME280;18039;52.188;21.024;2022-11-02T04:28:39;76588.84;;;-141.45;100.00
31403;BME280;18039;52.188;21.024;2022-11-02T04:31:06;76584.78;;;-141.45;100.00
31403;BME280;18039;52.188;21.024;2022-11-02T04:33:37;76580.72;;;-141.45;100.00
31403;BME280;18039;52.188;21.024;2022-11-02T04:36:07;76580.72;;;-141.45;100.00
31403;BME280;18039;52.188;21.024;2022-11-02T04:38:37;76584.78;;;-141.45;100.00
31403;BME280;18039;52.188;21.024;2022-11-02T04:41:22;76580.72;;;-141.45;100.00
31403;BME280;18039;52.188;21.024;2022-11-02T04:44:21;76576.69;;;-141.45;100.00
31403;BME280;18039;52.188;21.024;2022-11-02T04:47:01;76576.69;;;-141.45;100.00
31403;BME280;18039;52.188;21.024;2022-11-02T04:49:31;76576.69;;;-141.45;100.00
31403;BME280;18039;52.188;21.024;2022-11-02T04:51:58;76580.72;;;-141.45;100.00
31403;BME280;18039;52.188;21.024;2022-11-02T04:54:27;76568.56;;;-141.45;100.00
31403;BME280;18039;52.188;21.024;2022-11-02T04:56:58;76564.50;;;-141.45;100.00
31403;BME280;18039;52.188;21.024;2022-11-02T04:59:27;76566.53;;;-141.45;100.00
31403;BME280;18039;52.188;21.024;2022-11-02T05:01:55;76572.63;;;-141.45;100.00
31403;BME280;18039;52.188;21.024;2022-11-02T05:04:22;76564.50;;;-141.45;100.00
31403;BME280;18039;52.188;21.024;2022-11-02T05:06:49;76570.59;;;-141.45;100.00
31403;BME280;18039;52.188;21.024;2022-11-02T05:09:17;76564.50;;;-141.45;100.00
31403;BME280;18039;52.188;21.024;2022-11-02T05:11:46;76568.56;;;-141.45;100.00
31403;BME280;18039;52.188;21.024;2022-11-02T05:14:15;76568.56;;;-141.45;100.00
31403;BME280;18039;52.188;21.024;2022-11-02T05:16:42;76566.53;;;-141.45;100.00
31403;BME280;18039;52.188;21.024;2022-11-02T05:19:11;76560.47;;;-141.45;100.00
31403;BME280;18039;52.188;21.024;2022-11-02T05:21:39;76560.47;;;-141.45;100.00
31403;BME280;18039;52.188;21.024;2022-11-02T05:24:06;76570.59;;;-141.45;100.00
31403;BME280;18039;52.188;21.024;2022-11-02T05:26:34;76572.63;;;-141.45;100.00
31403;BME280;18039;52.188;21.024;2022-11-02T05:29:02;76568.56;;;-141.45;100.00
31403;BME280;18039;52.188;21.024;2022-11-02T05:31:30;76572.63;;;-141.45;100.00
31403;BME280;18039;52.188;21.024;2022-11-02T05:33:57;76572.63;;;-141.45;100.00
31403;BME280;18039;52.188;21.024;2022-11-02T05:36:24;76560.47;;;-141.45;100.00
31403;BME280;18039;52.188;21.024;2022-11-02T05:38:53;76570.59;;;-141.45;100.00
31403;BME280;18039;52.188;21.024;2022-11-02T05:41:21;76572.63;;;-141.45;100.00
31403;BME280;18039;52.188;21.024;2022-11-02T05:43:51;76572.63;;;-141.45;100.00
31403;BME280;18039;52.188;21.024;2022-11-02T05:46:21;76568.56;;;-141.45;100.00
31403;BME280;18039;52.188;21.024;2022-11-02T05:48:48;76568.56;;;-141.45;100.00
31403;BME280;18039;52.188;21.024;2022-11-02T05:51:15;76568.56;;;-141.45;100.00
31403;BME280;18039;52.188;21.024;2022-11-02T05:53:42;76560.47;;;-141.45;100.00
31403;BME280;18039;52.188;21.024;2022-11-02T05:56:09;76568.56;;;-141.45;100.00
31403;BME280;18039;52.188;21.024;2022-11-02T05:58:37;76568.56;;;-141.45;100.00
31403;BME280;18039;52.188;21.024;2022-11-02T06:01:06;76568.56;;;-141.45;100.00
31403;BME280;18039;52.188;21.024;2022-11-02T06:03:34;76564.50;;;-141.45;100.00
31403;BME280;18039;52.188;21.024;2022-11-02T06:06:06;76568.56;;;-141.45;100.00
31403;BME280;18039;52.188;21.024;2022-11-02T06:08:35;76564.50;;;-141.45;100.00
31403;BME280;18039;52.188;21.024;2022-11-02T06:11:07;76568.56;;;-141.45;100.00
31403;BME280;18039;52.188;21.024;2022-11-02T06:13:35;76560.47;;;-141.45;100.00
31403;BME280;18039;52.188;21.024;2022-11-02T06:16:04;76560.47;;;-141.45;100.00
31403;BME280;18039;52.188;21.024;2022-11-02T06:18:32;76572.63;;;-141.45;100.00
31403;BME280;18039;52.188;21.024;2022-11-02T06:20:59;76568.56;;;-141.45;100.00
31403;BME280;18039;52.188;21.024;2022-11-02T06:23:27;76568.56;;;-141.45;100.00
31403;BME280;18039;52.188;21.024;2022-11-02T06:25:56;76560.47;;;-141.45;100.00
31403;BME280;18039;52.188;21.024;2022-11-02T06:28:24;76574.66;;;-141.45;100.00
31403;BME280;18039;52.188;21.024;2022-11-02T06:30:52;76568.56;;;-141.45;100.00
31403;BME280;18039;52.188;21.024;2022-11-02T06:33:20;76572.63;;;-141.45;100.00
31403;BME280;18039;52.188;21.024;2022-11-02T06:35:49;76572.63;;;-141.45;100.00
31403;BME280;18039;52.188;21.024;2022-11-02T06:38:17;76572.63;;;-141.45;100.00
31403;BME280;18039;52.188;21.024;2022-11-02T06:41:02;76564.50;;;-141.45;100.00
31403;BME280;18039;52.188;21.024;2022-11-02T06:43:32;76562.50;;;-141.45;100.00
31403;BME280;18039;52.188;21.024;2022-11-02T06:45:59;76564.50;;;-141.45;100.00
31403;BME280;18039;52.188;21.024;2022-11-02T06:48:27;76560.47;;;-141.45;100.00
31403;BME280;18039;52.188;21.024;2022-11-02T06:51:02;76560.47;;;-141.45;100.00
31403;BME280;18039;52.188;21.024;2022-11-02T06:53:30;76552.34;;;-141.45;100.00
31403;BME280;18039;52.188;21.024;2022-11-02T06:55:59;76560.47;;;-141.45;100.00
31403;BME280;18039;52.188;21.024;2022-11-02T06:58:26;76548.31;;;-141.45;100.00
31403;BME280;18039;52.188;21.024;2022-11-02T07:01:11;76548.31;;;-141.45;100.00
31403;BME280;18039;52.188;21.024;2022-11-02T07:03:39;76552.34;;;-141.45;100.00
31403;BME280;18039;52.188;21.024;2022-11-02T07:06:06;76552.34;;;-141.45;100.00
31403;BME280;18039;52.188;21.024;2022-11-02T07:08:40;76540.19;;;-141.45;100.00
31403;BME280;18039;52.188;21.024;2022-11-02T07:11:12;76536.13;;;-141.45;100.00
31403;BME280;18039;52.188;21.024;2022-11-02T07:13:39;76528.03;;;-141.45;100.00
31403;BME280;18039;52.188;21.024;2022-11-02T07:16:06;76528.03;;;-141.45;100.00
31403;BME280;18039;52.188;21.024;2022-11-02T07:18:33;76523.97;;;-141.45;100.00
31403;BME280;18039;52.188;21.024;2022-11-02T07:21:00;76519.91;;;-141.45;100.00
31403;BME280;18039;52.188;21.024;2022-11-02T07:23:28;76515.88;;;-141.45;100.00
31403;BME280;18039;52.188;21.024;2022-11-02T07:25:55;76499.66;;;-141.45;100.00
31403;BME280;18039;52.188;21.024;2022-11-02T07:28:22;76507.75;;;-141.45;100.00
31403;BME280;18039;52.188;21.024;2022-11-02T07:30:52;76499.66;;;-141.45;100.00
31403;BME280;18039;52.188;21.024;2022-11-02T07:33:20;76495.59;;;-141.45;100.00
31403;BME280;18039;52.188;21.024;2022-11-02T07:35:47;76489.50;;;-141.45;100.00
31403;BME280;18039;52.188;21.024;2022-11-02T07:38:14;76479.38;;;-141.45;100.00
31403;BME280;18039;52.188;21.024;2022-11-02T07:40:41;76465.19;;;-141.45;100.00
31403;BME280;18039;52.188;21.024;2022-11-02T07:43:09;76461.13;;;-141.45;100.00
31403;BME280;18039;52.188;21.024;2022-11-02T07:45:56;76455.06;;;-141.45;100.00
31403;BME280;18039;52.188;21.024;2022-11-02T07:48:23;76455.06;;;-141.45;100.00
31403;BME280;18039;52.188;21.024;2022-11-02T07:50:50;76467.22;;;-141.45;100.00
31403;BME280;18039;52.188;21.024;2022-11-02T07:53:17;76479.38;;;-141.45;100.00
31403;BME280;18039;52.188;21.024;2022-11-02T07:55:44;76463.16;;;-141.45;100.00
31403;BME280;18039;52.188;21.024;2022-11-02T07:58:12;76467.22;;;-141.45;100.00
31403;BME280;18039;52.188;21.024;2022-11-02T08:00:40;76455.06;;;-141.45;100.00
31403;BME280;18039;52.188;21.024;2022-11-02T08:03:10;76459.09;;;-141.45;100.00
31403;BME280;18039;52.188;21.024;2022-11-02T08:05:39;76451.00;;;-141.45;100.00
31403;BME280;18039;52.188;21.024;2022-11-02T08:08:10;76455.06;;;-141.45;100.00
31403;BME280;18039;52.188;21.024;2022-11-02T08:10:38;76440.88;;;-141.45;99.81
31403;BME280;18039;52.188;21.024;2022-11-02T08:13:08;76434.78;;;-141.45;99.62
31403;BME280;18039;52.188;21.024;2022-11-02T08:15:35;76430.72;;;-141.45;99.53
31403;BME280;18039;52.188;21.024;2022-11-02T08:18:14;76428.69;;;-141.45;99.09
31403;BME280;18039;52.188;21.024;2022-11-02T08:20:42;76418.56;;;-141.45;98.81
31403;BME280;18039;52.188;21.024;2022-11-02T08:23:09;76406.41;;;-141.45;98.96
31403;BME280;18039;52.188;21.024;2022-11-02T08:25:38;76398.28;;;-141.45;98.69
31403;BME280;18039;52.188;21.024;2022-11-02T08:28:06;76392.22;;;-141.45;98.45
31403;BME280;18039;52.188;21.024;2022-11-02T08:30:34;76369.91;;;-141.45;98.17
31403;BME280;18039;52.188;21.024;2022-11-02T08:33:04;76365.88;;;-141.45;96.92
31403;BME280;18039;52.188;21.024;2022-11-02T08:35:32;76361.81;;;-141.45;96.67
31403;BME280;18039;52.188;21.024;2022-11-02T08:38:01;76353.72;;;-141.45;96.48
31403;BME280;18039;52.188;21.024;2022-11-02T08:40:29;76345.59;;;-141.45;95.94
31403;BME280;18039;52.188;21.024;2022-11-02T08:42:58;76333.44;;;-141.45;93.79
31403;BME280;18039;52.188;21.024;2022-11-02T08:45:26;76325.31;;;-141.45;93.33
31403;BME280;18039;52.188;21.024;2022-11-02T08:47:53;76327.34;;;-141.45;93.26
31403;BME280;18039;52.188;21.024;2022-11-02T08:50:21;76331.41;;;-141.45;93.35
31403;BME280;18039;52.188;21.024;2022-11-02T08:52:49;76327.34;;;-141.45;92.67
31403;BME280;18039;52.188;21.024;2022-11-02T08:55:16;76321.28;;;-141.45;92.71
31403;BME280;18039;52.188;21.024;2022-11-02T09:00:15;76317.22;;;-141.45;91.58
31403;BME280;18039;52.188;21.024;2022-11-02T09:02:43;76305.06;;;-141.45;91.47
31403;BME280;18039;52.188;21.024;2022-11-02T09:05:10;76292.91;;;-141.45;90.51
31403;BME280;18039;52.188;21.024;2022-11-02T09:07:38;76290.88;;;-141.45;89.40
31403;BME280;18039;52.188;21.024;2022-11-02T09:10:05;76280.72;;;-141.45;90.58
31403;BME280;18039;52.188;21.024;2022-11-02T09:12:33;76272.63;;;-141.45;89.65
31403;BME280;18039;52.188;21.024;2022-11-02T09:15:01;76272.63;;;-141.45;88.72
31403;BME280;18039;52.188;21.024;2022-11-02T09:17:28;76288.84;;;-141.45;89.46
31403;BME280;18039;52.188;21.024;2022-11-02T09:19:55;76288.84;;;-141.45;89.60
31403;BME280;18039;52.188;21.024;2022-11-02T09:22:22;76292.91;;;-141.45;87.41
31403;BME280;18039;52.188;21.024;2022-11-02T09:24:49;76288.84;;;-141.45;86.77
31403;BME280;18039;52.188;21.024;2022-11-02T09:27:16;76305.06;;;-141.45;88.06
31403;BME280;18039;52.188;21.024;2022-11-02T09:29:43;76305.06;;;-141.45;87.25
31403;BME280;18039;52.188;21.024;2022-11-02T09:32:10;76301.00;;;-141.45;87.88
31403;BME280;18039;52.188;21.024;2022-11-02T09:34:37;76296.94;;;-141.45;87.83
31403;BME280;18039;52.188;21.024;2022-11-02T09:37:04;76292.91;;;-141.45;87.59
31403;BME280;18039;52.188;21.024;2022-11-02T09:39:31;76284.78;;;-141.45;87.52
31403;BME280;18039;52.188;21.024;2022-11-02T09:42:29;76288.84;;;-141.45;87.70
31403;BME280;18039;52.188;21.024;2022-11-02T09:45:03;76288.84;;;-141.45;86.80
31403;BME280;18039;52.188;21.024;2022-11-02T09:47:42;76307.09;;;-141.45;86.58
31403;BME280;18039;52.188;21.024;2022-11-02T09:50:52;76313.16;;;-141.45;87.68
31403;BME280;18039;52.188;21.024;2022-11-02T09:56:16;76307.09;;;-141.45;86.89
31403;BME280;18039;52.188;21.024;2022-11-02T09:58:55;76315.19;;;-141.45;86.31
31403;BME280;18039;52.188;21.024;2022-11-02T10:01:30;76325.31;;;-141.45;87.89
31403;BME280;18039;52.188;21.024;2022-11-02T10:09:56;76317.22;;;-141.45;88.42
31403;BME280;18039;52.188;21.024;2022-11-02T10:15:14;76341.53;;;-141.45;89.13
31403;BME280;18039;52.188;21.024;2022-11-02T10:17:45;76345.59;;;-141.45;89.70
31403;BME280;18039;52.188;21.024;2022-11-02T10:20:31;76345.59;;;-141.45;90.48
31403;BME280;18039;52.188;21.024;2022-11-02T10:23:07;76343.56;;;-141.45;90.80
31403;BME280;18039;52.188;21.024;2022-11-02T10:25:35;76329.38;;;-141.45;90.31
31403;BME280;18039;52.188;21.024;2022-11-02T10:28:13;76325.31;;;-141.45;90.13
31403;BME280;18039;52.188;21.024;2022-11-02T10:30:43;76321.28;;;-141.45;90.07
31403;BME280;18039;52.188;21.024;2022-11-02T10:33:13;76321.28;;;-141.45;89.82
31403;BME280;18039;52.188;21.024;2022-11-02T10:35:58;76329.38;;;-141.45;90.22
31403;BME280;18039;52.188;21.024;2022-11-02T10:39:13;76333.44;;;-141.45;91.47
31403;BME280;18039;52.188;21.024;2022-11-02T10:47:20;76335.47;;;-141.45;90.96
31403;BME280;18039;52.188;21.024;2022-11-02T10:52:42;76317.22;;;-141.45;90.40
31403;BME280;18039;52.188;21.024;2022-11-02T10:55:35;76321.28;;;-141.45;89.65
31403;BME280;18039;52.188;21.024;2022-11-02T10:58:10;76321.28;;;-141.45;90.17
31403;BME280;18039;52.188;21.024;2022-11-02T11:00:41;76321.28;;;-141.45;90.04
31403;BME280;18039;52.188;21.024;2022-11-02T11:03:14;76317.22;;;-141.45;89.50
31403;BME280;18039;52.188;21.024;2022-11-02T11:11:23;76288.84;;;-141.45;89.50
31403;BME280;18039;52.188;21.024;2022-11-02T11:16:54;76252.34;;;-141.45;87.13
31403;BME280;18039;52.188;21.024;2022-11-02T11:22:28;76228.03;;;-141.45;85.80
31403;BME280;18039;52.188;21.024;2022-11-02T11:25:20;76195.59;;;-141.45;83.82
31403;BME280;18039;52.188;21.024;2022-11-02T11:27:56;76195.59;;;-141.45;83.99
31403;BME280;18039;52.188;21.024;2022-11-02T11:33:18;76171.28;;;-141.45;82.82
31403;BME280;18039;52.188;21.024;2022-11-02T11:35:48;76149.00;;;-141.45;83.77
31403;BME280;18039;52.188;21.024;2022-11-02T11:38:19;76128.72;;;-141.45;80.61
31403;BME280;18039;52.188;21.024;2022-11-02T11:40:50;76114.53;;;-141.45;78.73
31403;BME280;18039;52.188;21.024;2022-11-02T11:43:22;76114.53;;;-141.45;77.01
31403;BME280;18039;52.188;21.024;2022-11-02T11:46:09;76142.91;;;-141.45;77.29
31403;BME280;18039;52.188;21.024;2022-11-02T11:48:38;76159.13;;;-141.45;77.84
31403;BME280;18039;52.188;21.024;2022-11-02T11:56:50;76163.19;;;-141.45;77.43
31403;BME280;18039;52.188;21.024;2022-11-02T12:01:56;76185.47;;;-141.45;76.64
31403;BME280;18039;52.188;21.024;2022-11-02T12:04:31;76207.78;;;-141.45;77.70
31403;BME280;18039;52.188;21.024;2022-11-02T12:18:08;76199.66;;;-141.45;79.42
31403;BME280;18039;52.188;21.024;2022-11-02T12:20:55;76189.53;;;-141.45;78.66
31403;BME280;18039;52.188;21.024;2022-11-02T12:29:10;76232.09;;;-141.45;80.29
31403;BME280;18039;52.188;21.024;2022-11-02T12:31:45;76242.22;;;-141.45;80.87
31403;BME280;18039;52.188;21.024;2022-11-02T12:38:17;76232.09;;;-141.45;80.75
31403;BME280;18039;52.188;21.024;2022-11-02T12:43:32;76252.34;;;-141.45;80.84
31403;BME280;18039;52.188;21.024;2022-11-02T12:52:22;76254.38;;;-141.45;81.11
31403;BME280;18039;52.188;21.024;2022-11-02T12:55:00;76252.34;;;-141.45;81.50
31403;BME280;18039;52.188;21.024;2022-11-02T12:57:33;76256.41;;;-141.45;81.49
31403;BME280;18039;52.188;21.024;2022-11-02T13:00:13;76258.44;;;-141.45;82.44
31403;BME280;18039;52.188;21.024;2022-11-02T13:02:50;76240.19;;;-141.45;82.49
31403;BME280;18039;52.188;21.024;2022-11-02T13:05:26;76226.00;;;-141.45;81.53
31403;BME280;18039;52.188;21.024;2022-11-02T13:08:31;76211.81;;;-141.45;81.33
31403;BME280;18039;52.188;21.024;2022-11-02T13:11:05;76207.78;;;-141.45;81.04
31403;BME280;18039;52.188;21.024;2022-11-02T13:13:41;76207.78;;;-141.45;80.63
31403;BME280;18039;52.188;21.024;2022-11-02T13:16:10;76207.78;;;-141.45;80.45
31403;BME280;18039;52.188;21.024;2022-11-02T13:18:49;76199.66;;;-141.45;80.04
31403;BME280;18039;52.188;21.024;2022-11-02T13:21:31;76191.56;;;-141.45;79.13
31403;BME280;18039;52.188;21.024;2022-11-02T13:23:59;76189.53;;;-141.45;79.06
31403;BME280;18039;52.188;21.024;2022-11-02T13:26:35;76193.56;;;-141.45;78.42
31403;BME280;18039;52.188;21.024;2022-11-02T13:29:11;76211.81;;;-141.45;79.03
31403;BME280;18039;52.188;21.024;2022-11-02T13:31:44;76199.66;;;-141.45;78.70
31403;BME280;18039;52.188;21.024;2022-11-02T13:34:17;76203.72;;;-141.45;78.82
31403;BME280;18039;52.188;21.024;2022-11-02T13:36:45;76217.91;;;-141.45;79.40
31403;BME280;18039;52.188;21.024;2022-11-02T13:39:21;76223.97;;;-141.45;79.06
31403;BME280;18039;52.188;21.024;2022-11-02T13:49:56;76240.19;;;-141.45;77.83
31403;BME280;18039;52.188;21.024;2022-11-02T13:55:26;76266.53;;;-141.45;77.42
31403;BME280;18039;52.188;21.024;2022-11-02T13:57:59;76280.72;;;-141.45;77.23
31403;BME280;18039;52.188;21.024;2022-11-02T14:00:29;76282.75;;;-141.45;76.82
31403;BME280;18039;52.188;21.024;2022-11-02T14:03:14;76290.88;;;-141.45;77.59
31403;BME280;18039;52.188;21.024;2022-11-02T14:05:53;76317.22;;;-141.45;78.44
31403;BME280;18039;52.188;21.024;2022-11-02T14:11:22;76313.16;;;-141.45;78.82
31403;BME280;18039;52.188;21.024;2022-11-02T14:37:28;76422.63;;;-141.45;85.35
31403;BME280;18039;52.188;21.024;2022-11-02T14:46:01;76451.00;;;-141.45;87.34
31403;BME280;18039;52.188;21.024;2022-11-02T14:48:52;76467.22;;;-141.45;88.28
31403;BME280;18039;52.188;21.024;2022-11-02T14:51:31;76479.38;;;-141.45;88.39
31403;BME280;18039;52.188;21.024;2022-11-02T14:54:05;76483.44;;;-141.45;89.23
31403;BME280;18039;52.188;21.024;2022-11-02T14:57:05;76499.66;;;-141.45;89.74
31403;BME280;18039;52.188;21.024;2022-11-02T14:59:38;76517.88;;;-141.45;90.12
31403;BME280;18039;52.188;21.024;2022-11-02T15:04:51;76544.25;;;-141.45;91.11
31403;BME280;18039;52.188;21.024;2022-11-02T15:18:33;76580.72;;;-141.45;93.29
31403;BME280;18039;52.188;21.024;2022-11-02T15:24:00;76596.94;;;-141.45;93.92
31403;BME280;18039;52.188;21.024;2022-11-02T15:29:35;76621.28;;;-141.45;94.46
31403;BME280;18039;52.188;21.024;2022-11-02T15:32:03;76625.31;;;-141.45;94.36